createdAt,value
2023-05-09T00:00:50.686Z,36.14
2023-05-09T00:01:50.714Z,36.16
2023-05-09T00:02:50.740Z,36.12
2023-05-09T00:03:50.806Z,36.05
2023-05-09T00:04:50.910Z,36.12
2023-05-09T00:05:50.836Z,36.10
2023-05-09T00:06:50.871Z,36.10
2023-05-09T00:07:50.899Z,36.10
2023-05-09T00:08:50.953Z,36.10
2023-05-09T00:09:50.995Z,36.09
2023-05-09T00:10:51.054Z,36.09
2023-05-09T00:11:51.083Z,36.09
2023-05-09T00:12:51.156Z,36.05
2023-05-09T00:13:52.081Z,36.12
2023-05-09T00:14:51.295Z,36.11
2023-05-09T00:15:51.239Z,36.05
2023-05-09T00:16:51.347Z,36.05
2023-05-09T00:17:51.348Z,36.05
2023-05-09T00:18:51.385Z,36.08
2023-05-09T00:19:51.391Z,36.02
2023-05-09T00:20:51.425Z,36.06
2023-05-09T00:21:51.527Z,36.08
2023-05-09T00:22:51.527Z,36.08
2023-05-09T00:23:51.574Z,36.05
2023-05-09T00:24:51.576Z,36.04
2023-05-09T00:25:51.645Z,36.03
2023-05-09T00:26:51.689Z,35.98
2023-05-09T00:27:51.712Z,36.00
2023-05-09T00:28:51.750Z,36.02
2023-05-09T00:29:51.792Z,36.03
2023-05-09T00:30:51.952Z,36.00
2023-05-09T00:31:51.889Z,35.97
2023-05-09T00:32:51.980Z,36.00
2023-05-09T00:33:51.962Z,36.04
2023-05-09T00:34:51.966Z,36.04
2023-05-09T00:35:51.993Z,36.01
2023-05-09T00:36:52.027Z,36.03
2023-05-09T00:37:52.157Z,36.03
2023-05-09T00:38:52.105Z,36.04
2023-05-09T00:39:52.128Z,35.97
2023-05-09T00:40:52.204Z,35.97
2023-05-09T00:41:52.252Z,36.00
2023-05-09T00:42:52.234Z,35.97
2023-05-09T00:43:52.347Z,35.98
2023-05-09T00:44:52.318Z,36.02
2023-05-09T00:45:54.243Z,36.00
2023-05-09T00:46:52.448Z,35.97
2023-05-09T00:47:52.593Z,36.00
2023-05-09T00:48:52.569Z,35.97
2023-05-09T00:49:52.547Z,36.01
2023-05-09T00:50:52.653Z,36.00
2023-05-09T00:51:52.650Z,36.00
2023-05-09T00:52:52.669Z,35.96
2023-05-09T00:53:52.733Z,36.00
2023-05-09T00:54:52.772Z,35.97
2023-05-09T00:55:52.836Z,35.98
2023-05-09T00:56:52.940Z,35.97
2023-05-09T00:57:52.917Z,35.97
2023-05-09T00:58:52.929Z,35.96
2023-05-09T00:59:53.005Z,35.96
2023-05-09T01:00:53.071Z,35.97
2023-05-09T01:01:53.361Z,35.93
2023-05-09T01:02:53.352Z,35.89
2023-05-09T01:03:53.287Z,35.92
2023-05-09T01:04:53.249Z,35.94
2023-05-09T01:05:53.326Z,35.92
2023-05-09T01:06:53.346Z,35.96
2023-05-09T01:07:53.375Z,35.93
2023-05-09T01:08:53.604Z,35.97
2023-05-09T01:09:53.545Z,35.91
2023-05-09T01:10:53.525Z,35.92
2023-05-09T01:11:53.582Z,35.92
2023-05-09T01:12:53.738Z,35.94
2023-05-09T01:13:53.671Z,35.92
2023-05-09T01:14:53.738Z,35.96
2023-05-09T01:15:53.802Z,35.89
2023-05-09T01:16:53.820Z,35.94
2023-05-09T01:17:53.975Z,35.89
2023-05-09T01:18:53.877Z,35.89
2023-05-09T01:19:53.906Z,35.90
2023-05-09T01:20:53.956Z,35.87
2023-05-09T01:21:54.131Z,35.91
2023-05-09T01:22:54.070Z,35.92
2023-05-09T01:23:54.114Z,35.92
2023-05-09T01:24:54.120Z,35.92
2023-05-09T01:25:54.185Z,35.87
2023-05-09T01:26:54.231Z,35.90
2023-05-09T01:27:54.251Z,35.89
2023-05-09T01:28:54.321Z,35.92
2023-05-09T01:29:54.362Z,35.89
2023-05-09T01:30:54.426Z,35.89
2023-05-09T01:31:54.466Z,35.87
2023-05-09T01:32:54.509Z,35.88
2023-05-09T01:33:54.635Z,35.88
2023-05-09T01:34:54.562Z,35.89
2023-05-09T01:35:54.632Z,35.87
2023-05-09T01:36:54.706Z,35.90
2023-05-09T01:37:54.752Z,35.90
2023-05-09T01:38:54.766Z,35.85
2023-05-09T01:39:54.822Z,35.86
2023-05-09T01:40:54.858Z,35.86
2023-05-09T01:41:54.968Z,35.85
2023-05-09T01:42:54.961Z,35.91
2023-05-09T01:43:55.075Z,35.88
2023-05-09T01:44:55.045Z,35.84
2023-05-09T01:45:55.099Z,35.87
2023-05-09T01:46:55.215Z,35.86
2023-05-09T01:47:55.232Z,35.86
2023-05-09T01:48:55.253Z,35.85
2023-05-09T01:49:55.416Z,35.84
2023-05-09T01:50:55.344Z,35.87
2023-05-09T01:51:55.388Z,35.86
2023-05-09T01:52:55.414Z,35.87
2023-05-09T01:53:55.460Z,35.85
2023-05-09T01:54:55.466Z,35.86
2023-05-09T01:55:55.522Z,35.82
2023-05-09T01:56:55.626Z,35.88
2023-05-09T01:57:55.611Z,35.84
2023-05-09T01:58:55.668Z,35.84
2023-05-09T01:59:55.718Z,35.84
2023-05-09T02:00:55.801Z,35.85
2023-05-09T02:01:55.816Z,35.85
2023-05-09T02:02:56.051Z,35.85
2023-05-09T02:03:55.861Z,35.81
2023-05-09T02:04:55.996Z,35.81
2023-05-09T02:05:56.036Z,35.85
2023-05-09T02:06:56.018Z,35.82
2023-05-09T02:07:56.029Z,35.85
2023-05-09T02:08:56.102Z,35.82
2023-05-09T02:09:56.126Z,35.82
2023-05-09T02:10:56.268Z,35.82
2023-05-09T02:11:56.226Z,35.82
2023-05-09T02:12:56.290Z,35.82
2023-05-09T02:13:56.284Z,35.81
2023-05-09T02:14:56.301Z,35.82
2023-05-09T02:15:56.398Z,35.84
2023-05-09T02:16:56.527Z,35.81
2023-05-09T02:17:56.500Z,35.78
2023-05-09T02:18:56.504Z,35.81
2023-05-09T02:19:56.552Z,35.78
2023-05-09T02:20:56.630Z,35.81
2023-05-09T02:21:56.740Z,35.80
2023-05-09T02:22:56.695Z,35.82
2023-05-09T02:23:56.711Z,35.81
2023-05-09T02:24:56.762Z,35.87
2023-05-09T02:25:56.832Z,35.79
2023-05-09T02:26:56.925Z,35.80
2023-05-09T02:27:56.938Z,35.76
2023-05-09T02:28:56.941Z,35.78
2023-05-09T02:29:56.979Z,35.77
2023-05-09T02:30:57.050Z,35.82
2023-05-09T02:31:57.163Z,35.81
2023-05-09T02:32:57.150Z,35.80
2023-05-09T02:33:57.185Z,35.76
2023-05-09T02:34:57.226Z,35.78
2023-05-09T02:35:57.295Z,35.80
2023-05-09T02:36:57.351Z,35.73
2023-05-09T02:37:57.404Z,35.75
2023-05-09T02:38:57.416Z,35.80
2023-05-09T02:39:57.451Z,35.75
2023-05-09T02:40:57.511Z,35.80
2023-05-09T02:41:57.555Z,35.76
2023-05-09T02:42:57.584Z,35.75
2023-05-09T02:43:57.675Z,35.76
2023-05-09T02:44:57.662Z,35.74
2023-05-09T02:45:57.756Z,35.78
2023-05-09T02:46:57.752Z,35.77
2023-05-09T02:47:57.818Z,35.78
2023-05-09T02:48:57.874Z,35.74
2023-05-09T02:49:57.900Z,35.76
2023-05-09T02:50:57.923Z,35.71
2023-05-09T02:51:57.993Z,35.76
2023-05-09T02:52:58.018Z,35.76
2023-05-09T02:53:58.165Z,35.76
2023-05-09T02:54:58.071Z,35.76
2023-05-09T02:55:58.103Z,35.72
2023-05-09T02:56:58.156Z,35.75
2023-05-09T02:58:11.972Z,35.77
2023-05-09T02:58:59.203Z,35.76
2023-05-09T02:59:58.190Z,35.69
2023-05-09T03:00:58.167Z,35.71
2023-05-09T03:01:58.175Z,35.72
2023-05-09T03:02:58.224Z,35.72
2023-05-09T03:03:58.189Z,35.68
2023-05-09T03:04:58.134Z,35.73
2023-05-09T03:05:58.120Z,35.73
2023-05-09T03:06:58.112Z,35.73
2023-05-09T03:07:58.139Z,35.73
2023-05-09T03:08:58.217Z,35.71
2023-05-09T03:09:58.170Z,35.67
2023-05-09T03:10:58.133Z,35.73
2023-05-09T03:11:58.201Z,35.72
2023-05-09T03:12:58.238Z,35.70
2023-05-09T03:13:58.285Z,35.68
2023-05-09T03:14:58.332Z,35.68
2023-05-09T03:15:58.412Z,35.69
2023-05-09T03:16:58.447Z,35.76
2023-05-09T03:17:58.522Z,35.69
2023-05-09T03:18:58.547Z,35.68
2023-05-09T03:19:58.572Z,35.73
2023-05-09T03:20:58.651Z,35.69
2023-05-09T03:21:58.683Z,35.69
2023-05-09T03:22:58.775Z,35.69
2023-05-09T03:23:58.809Z,35.68
2023-05-09T03:24:58.805Z,35.72
2023-05-09T03:25:58.962Z,35.72
2023-05-09T03:26:58.936Z,35.66
2023-05-09T03:27:59.194Z,35.71
2023-05-09T03:28:59.031Z,35.69
2023-05-09T03:29:59.048Z,35.71
2023-05-09T03:30:59.141Z,35.68
2023-05-09T03:31:59.134Z,35.65
2023-05-09T03:32:59.254Z,35.69
2023-05-09T03:33:59.244Z,35.69
2023-05-09T03:34:59.297Z,35.72
2023-05-09T03:35:59.334Z,35.68
2023-05-09T03:36:59.346Z,35.71
2023-05-09T03:37:59.421Z,35.69
2023-05-09T03:38:59.479Z,35.69
2023-05-09T03:39:59.516Z,35.71
2023-05-09T03:40:59.556Z,35.66
2023-05-09T03:41:59.683Z,35.69
2023-05-09T03:42:59.663Z,35.66
2023-05-09T03:43:59.716Z,35.66
2023-05-09T03:44:59.757Z,35.68
2023-05-09T03:45:59.820Z,35.73
2023-05-09T03:46:59.952Z,35.66
2023-05-09T03:47:59.902Z,35.68
2023-05-09T03:48:59.910Z,35.68
2023-05-09T03:49:59.935Z,35.66
2023-05-09T03:51:00.027Z,35.71
2023-05-09T03:52:00.063Z,35.66
2023-05-09T03:53:00.121Z,35.68
2023-05-09T03:54:00.206Z,35.64
2023-05-09T03:55:00.189Z,35.62
2023-05-09T03:56:00.269Z,35.65
2023-05-09T03:57:00.273Z,35.66
2023-05-09T03:58:00.423Z,35.68
2023-05-09T03:59:00.358Z,35.62
2023-05-09T04:00:00.441Z,35.65
2023-05-09T04:01:00.466Z,35.65
2023-05-09T04:02:00.513Z,35.70
2023-05-09T04:03:00.624Z,35.69
2023-05-09T04:04:00.619Z,35.65
2023-05-09T04:05:00.583Z,35.66
2023-05-09T04:06:02.202Z,35.61
2023-05-09T04:07:00.659Z,35.68
2023-05-09T04:08:00.680Z,35.68
2023-05-09T04:09:00.715Z,35.63
2023-05-09T04:10:00.783Z,35.65
2023-05-09T04:11:00.793Z,35.64
2023-05-09T04:12:00.854Z,35.64
2023-05-09T04:13:00.913Z,35.65
2023-05-09T04:14:01.005Z,35.59
2023-05-09T04:15:00.967Z,35.61
2023-05-09T04:16:01.047Z,35.65
2023-05-09T04:17:01.207Z,35.61
2023-05-09T04:18:01.132Z,35.62
2023-05-09T04:19:01.152Z,35.61
2023-05-09T04:20:01.216Z,35.62
2023-05-09T04:21:01.215Z,35.61
2023-05-09T04:22:01.255Z,35.62
2023-05-09T04:23:01.320Z,35.61
2023-05-09T04:24:01.360Z,35.62
2023-05-09T04:25:01.402Z,35.65
2023-05-09T04:26:01.475Z,35.61
2023-05-09T04:27:01.502Z,35.64
2023-05-09T04:28:01.565Z,35.65
2023-05-09T04:29:01.643Z,35.63
2023-05-09T04:30:01.760Z,35.61
2023-05-09T04:31:01.803Z,35.62
2023-05-09T04:32:01.943Z,35.62
2023-05-09T04:33:01.856Z,35.60
2023-05-09T04:34:01.951Z,35.61
2023-05-09T04:35:01.990Z,35.60
2023-05-09T04:36:02.033Z,35.68
2023-05-09T04:37:02.076Z,35.62
2023-05-09T04:38:02.120Z,35.65
2023-05-09T04:39:02.204Z,35.60
2023-05-09T04:40:02.206Z,35.60
2023-05-09T04:41:02.388Z,35.58
2023-05-09T04:42:02.346Z,35.60
2023-05-09T04:43:02.414Z,35.57
2023-05-09T04:44:02.462Z,35.58
2023-05-09T04:45:02.471Z,35.61
2023-05-09T04:46:02.680Z,35.61
2023-05-09T04:47:02.607Z,35.62
2023-05-09T04:48:02.676Z,35.58
2023-05-09T04:49:02.688Z,35.60
2023-05-09T04:50:02.706Z,35.58
2023-05-09T04:51:02.718Z,35.63
2023-05-09T04:52:02.798Z,35.61
2023-05-09T04:53:02.806Z,35.61
2023-05-09T04:54:02.894Z,35.62
2023-05-09T04:55:02.914Z,35.60
2023-05-09T04:56:02.958Z,35.62
2023-05-09T04:57:13.703Z,35.58
2023-05-09T04:58:03.963Z,35.61
2023-05-09T04:59:03.230Z,35.58
2023-05-09T05:00:02.953Z,35.59
2023-05-09T05:01:02.972Z,35.62
2023-05-09T05:02:03.245Z,35.66
2023-05-09T05:03:02.972Z,35.65
2023-05-09T05:04:02.920Z,35.63
2023-05-09T05:05:17.547Z,35.64
2023-05-09T05:06:03.920Z,35.68
2023-05-09T05:07:02.897Z,35.69
2023-05-09T05:08:02.876Z,35.66
2023-05-09T05:09:02.906Z,35.68
2023-05-09T05:10:02.877Z,35.73
2023-05-09T05:11:03.039Z,35.76
2023-05-09T05:12:04.932Z,35.85
2023-05-09T05:13:02.911Z,35.82
2023-05-09T05:14:02.852Z,35.85
2023-05-09T05:15:02.881Z,35.94
2023-05-09T05:16:02.883Z,35.98
2023-05-09T05:17:02.862Z,35.95
2023-05-09T05:18:03.005Z,35.99
2023-05-09T05:19:02.843Z,36.02
2023-05-09T05:20:02.812Z,36.03
2023-05-09T05:21:02.828Z,36.02
2023-05-09T05:22:02.784Z,36.03
2023-05-09T05:23:02.901Z,36.11
2023-05-09T05:24:02.827Z,36.14
2023-05-09T05:25:02.780Z,36.14
2023-05-09T05:26:03.717Z,36.12
2023-05-09T05:27:03.753Z,36.15
2023-05-09T05:28:02.758Z,36.17
2023-05-09T05:29:02.766Z,36.18
2023-05-09T05:30:02.757Z,36.19
2023-05-09T05:31:02.754Z,36.19
2023-05-09T05:32:02.729Z,36.21
2023-05-09T05:33:02.851Z,36.42
2023-05-09T05:34:02.866Z,39.10
2023-05-09T05:35:02.763Z,39.26
2023-05-09T05:36:02.855Z,38.71
2023-05-09T05:37:02.680Z,39.08
2023-05-09T05:38:02.672Z,38.67
2023-05-09T05:39:02.743Z,39.43
2023-05-09T05:40:02.672Z,39.63
2023-05-09T05:41:02.738Z,39.57
2023-05-09T05:42:02.659Z,39.56
2023-05-09T05:43:02.732Z,39.57
2023-05-09T05:44:02.647Z,39.67
2023-05-09T05:45:02.736Z,39.64
2023-05-09T05:46:02.671Z,39.68
2023-05-09T05:47:02.656Z,39.52
2023-05-09T05:48:02.789Z,39.73
2023-05-09T05:49:02.613Z,39.47
2023-05-09T05:50:02.772Z,39.58
2023-05-09T05:51:02.639Z,39.50
2023-05-09T05:52:02.709Z,39.48
2023-05-09T05:53:02.789Z,39.46
2023-05-09T05:54:02.807Z,39.52
2023-05-09T05:55:02.857Z,39.51
2023-05-09T05:56:02.903Z,39.71
2023-05-09T05:57:02.946Z,39.60
2023-05-09T05:58:02.982Z,39.67
2023-05-09T05:59:03.080Z,39.61
2023-05-09T06:00:03.145Z,39.73
2023-05-09T06:01:03.157Z,39.69
2023-05-09T06:02:03.297Z,39.84
2023-05-09T06:03:03.841Z,39.67
2023-05-09T06:04:03.388Z,39.72
2023-05-09T06:05:03.336Z,39.74
2023-05-09T06:06:03.390Z,39.80
2023-05-09T06:07:03.450Z,39.75
2023-05-09T06:08:03.528Z,39.85
2023-05-09T06:09:03.553Z,39.76
2023-05-09T06:10:03.611Z,39.63
2023-05-09T06:11:04.231Z,39.72
2023-05-09T06:12:03.715Z,39.76
2023-05-09T06:13:04.018Z,39.70
2023-05-09T06:14:03.809Z,39.55
2023-05-09T06:15:03.893Z,39.49
2023-05-09T06:16:14.919Z,39.44
2023-05-09T06:17:05.013Z,39.36
2023-05-09T06:18:03.979Z,39.25
2023-05-09T06:19:03.898Z,39.23
2023-05-09T06:20:03.877Z,39.19
2023-05-09T06:21:03.873Z,39.11
2023-05-09T06:22:03.960Z,39.39
2023-05-09T06:23:03.933Z,39.34
2023-05-09T06:24:10.268Z,39.87
2023-05-09T06:25:04.950Z,39.94
2023-05-09T06:26:03.867Z,39.76
2023-05-09T06:28:03.870Z,39.64
2023-05-09T06:29:03.850Z,39.32
2023-05-09T06:30:14.175Z,39.67
2023-05-09T06:31:04.826Z,39.79
2023-05-09T06:32:03.800Z,39.56
2023-05-09T06:33:04.291Z,39.51
2023-05-09T06:34:03.803Z,39.43
2023-05-09T06:35:03.804Z,39.43
2023-05-09T06:36:03.793Z,39.57
2023-05-09T06:37:03.829Z,39.82
2023-05-09T06:38:04.844Z,38.99
2023-05-09T06:39:04.254Z,38.90
2023-05-09T06:40:03.789Z,38.81
2023-05-09T06:41:03.874Z,38.69
2023-05-09T06:42:03.830Z,38.84
2023-05-09T06:43:03.894Z,38.74
2023-05-09T06:44:03.958Z,38.84
2023-05-09T06:45:03.988Z,38.70
2023-05-09T06:46:04.066Z,38.75
2023-05-09T06:47:04.073Z,38.90
2023-05-09T06:48:04.113Z,38.88
2023-05-09T06:49:04.213Z,39.27
2023-05-09T06:50:04.226Z,38.93
2023-05-09T06:51:04.406Z,38.80
2023-05-09T06:52:04.302Z,38.86
2023-05-09T06:53:04.386Z,38.90
2023-05-09T06:54:04.534Z,38.83
2023-05-09T06:55:04.479Z,38.89
2023-05-09T06:56:04.526Z,39.09
2023-05-09T06:57:04.577Z,39.01
2023-05-09T06:58:04.710Z,39.02
2023-05-09T06:59:04.703Z,39.02
2023-05-09T07:00:04.821Z,39.19
2023-05-09T07:01:04.790Z,39.22
2023-05-09T07:02:04.882Z,39.27
2023-05-09T07:03:05.049Z,39.38
2023-05-09T07:04:05.762Z,39.47
2023-05-09T07:05:05.178Z,39.50
2023-05-09T07:06:05.063Z,39.45
2023-05-09T07:07:05.104Z,39.40
2023-05-09T07:08:05.165Z,39.56
2023-05-09T07:09:05.364Z,39.50
2023-05-09T07:10:11.483Z,39.53
2023-05-09T07:11:06.289Z,39.64
2023-05-09T07:12:05.280Z,39.50
2023-05-09T07:13:05.304Z,39.54
2023-05-09T07:14:05.274Z,39.51
2023-05-09T07:15:05.253Z,39.55
2023-05-09T07:16:05.278Z,39.47
2023-05-09T07:17:21.346Z,39.52
2023-05-09T07:18:06.260Z,39.63
2023-05-09T07:19:05.221Z,39.57
2023-05-09T07:20:05.238Z,39.56
2023-05-09T07:21:05.161Z,39.49
2023-05-09T07:22:05.191Z,39.50
2023-05-09T07:23:05.198Z,39.42
2023-05-09T07:24:05.184Z,39.26
2023-05-09T07:25:05.236Z,39.24
2023-05-09T07:26:05.245Z,39.14
2023-05-09T07:27:05.162Z,38.94
2023-05-09T07:28:05.221Z,38.92
2023-05-09T07:29:05.239Z,38.85
2023-05-09T07:30:05.261Z,38.87
2023-05-09T07:31:05.297Z,39.02
2023-05-09T07:32:05.452Z,39.13
2023-05-09T07:33:05.448Z,39.29
2023-05-09T07:34:05.779Z,39.89
2023-05-09T07:35:05.527Z,40.81
2023-05-09T07:36:05.503Z,41.20
2023-05-09T07:37:05.619Z,40.95
2023-05-09T07:38:05.601Z,40.66
2023-05-09T07:39:06.015Z,39.65
2023-05-09T07:40:05.656Z,39.36
2023-05-09T07:41:05.631Z,39.60
2023-05-09T07:42:06.343Z,39.41
2023-05-09T07:43:05.727Z,39.41
2023-05-09T07:44:05.777Z,39.33
2023-05-09T07:45:05.773Z,39.28
2023-05-09T07:46:05.939Z,39.32
2023-05-09T07:47:05.897Z,39.54
2023-05-09T07:48:05.936Z,39.50
2023-05-09T07:49:05.975Z,39.47
2023-05-09T07:50:06.018Z,39.39
2023-05-09T07:51:06.097Z,39.55
2023-05-09T07:52:06.177Z,39.57
2023-05-09T07:53:06.323Z,39.59
2023-05-09T07:54:06.347Z,39.70
2023-05-09T07:55:06.215Z,39.68
2023-05-09T07:56:06.265Z,39.66
2023-05-09T07:57:06.342Z,39.72
2023-05-09T07:58:06.444Z,39.64
2023-05-09T07:59:06.495Z,39.82
2023-05-09T08:00:06.427Z,39.70
2023-05-09T08:01:06.502Z,39.67
2023-05-09T08:02:06.583Z,39.62
2023-05-09T08:03:06.605Z,39.54
2023-05-09T08:04:06.714Z,39.64
2023-05-09T08:05:06.646Z,39.58
2023-05-09T08:06:06.672Z,39.56
2023-05-09T08:07:06.683Z,39.55
2023-05-09T08:08:06.796Z,39.46
2023-05-09T08:09:06.845Z,39.43
2023-05-09T08:10:06.801Z,39.43
2023-05-09T08:11:06.934Z,39.37
2023-05-09T08:12:06.905Z,39.47
2023-05-09T08:13:06.965Z,39.47
2023-05-09T08:14:07.105Z,39.60
2023-05-09T08:15:07.129Z,39.78
2023-05-09T08:16:07.108Z,39.80
2023-05-09T08:17:07.113Z,40.13
2023-05-09T08:18:07.280Z,40.10
2023-05-09T08:19:07.174Z,40.31
2023-05-09T08:20:07.167Z,40.57
2023-05-09T08:21:07.224Z,40.50
2023-05-09T08:22:07.259Z,40.49
2023-05-09T08:23:07.286Z,40.73
2023-05-09T08:24:07.824Z,40.56
2023-05-09T08:25:07.373Z,40.60
2023-05-09T08:26:07.433Z,40.55
2023-05-09T08:27:07.504Z,40.55
2023-05-09T08:28:07.469Z,40.76
2023-05-09T08:29:07.806Z,40.50
2023-05-09T08:30:07.595Z,40.51
2023-05-09T08:31:07.575Z,40.40
2023-05-09T08:32:10.327Z,40.37
2023-05-09T08:33:07.697Z,40.24
2023-05-09T08:34:07.580Z,40.25
2023-05-09T08:35:07.559Z,40.27
2023-05-09T08:36:07.583Z,40.16
2023-05-09T08:37:08.305Z,40.42
2023-05-09T08:38:07.574Z,40.16
2023-05-09T08:39:07.857Z,40.06
2023-05-09T08:40:07.834Z,40.88
2023-05-09T08:41:07.539Z,41.07
2023-05-09T08:42:07.649Z,41.25
2023-05-09T08:43:07.492Z,41.31
2023-05-09T08:44:07.638Z,40.92
2023-05-09T08:45:07.498Z,40.85
2023-05-09T08:46:07.604Z,40.78
2023-05-09T08:47:07.485Z,40.76
2023-05-09T08:48:07.544Z,40.57
2023-05-09T08:49:07.468Z,40.42
2023-05-09T08:50:08.329Z,40.49
2023-05-09T08:51:07.457Z,40.23
2023-05-09T08:52:07.461Z,40.20
2023-05-09T08:53:07.459Z,40.02
2023-05-09T08:54:09.314Z,39.98
2023-05-09T08:55:07.470Z,39.88
2023-05-09T08:56:07.456Z,39.76
2023-05-09T08:57:07.487Z,39.65
2023-05-09T08:58:07.398Z,39.72
2023-05-09T08:59:07.407Z,39.68
2023-05-09T09:00:07.412Z,39.70
2023-05-09T09:01:07.379Z,39.52
2023-05-09T09:02:07.610Z,39.32
2023-05-09T09:03:07.384Z,39.39
2023-05-09T09:04:07.421Z,39.28
2023-05-09T09:05:08.171Z,39.53
2023-05-09T09:06:08.357Z,39.37
2023-05-09T09:07:07.324Z,39.32
2023-05-09T09:08:07.330Z,39.18
2023-05-09T09:09:07.328Z,39.36
2023-05-09T09:10:07.329Z,39.15
2023-05-09T09:11:07.302Z,39.22
2023-05-09T09:12:07.343Z,39.10
2023-05-09T09:13:07.494Z,39.11
2023-05-09T09:14:07.334Z,38.99
2023-05-09T09:15:07.272Z,38.97
2023-05-09T09:16:07.316Z,38.90
2023-05-09T09:17:07.279Z,38.96
2023-05-09T09:18:07.337Z,38.82
2023-05-09T09:19:07.267Z,38.70
2023-05-09T09:20:07.310Z,38.75
2023-05-09T09:21:07.384Z,38.68
2023-05-09T09:22:07.336Z,38.83
2023-05-09T09:23:07.348Z,38.84
2023-05-09T09:24:07.387Z,38.83
2023-05-09T09:25:07.408Z,38.84
2023-05-09T09:26:07.496Z,38.76
2023-05-09T09:27:07.518Z,38.68
2023-05-09T09:28:07.569Z,38.93
2023-05-09T09:29:07.737Z,38.72
2023-05-09T09:30:07.633Z,38.69
2023-05-09T09:31:07.669Z,38.64
2023-05-09T09:32:07.783Z,38.62
2023-05-09T09:33:07.842Z,38.50
2023-05-09T09:34:08.413Z,38.80
2023-05-09T09:35:07.810Z,39.12
2023-05-09T09:36:07.841Z,39.79
2023-05-09T09:37:07.900Z,39.54
2023-05-09T09:38:07.867Z,39.08
2023-05-09T09:39:07.936Z,39.00
2023-05-09T09:40:07.916Z,38.95
2023-05-09T09:41:07.930Z,38.77
2023-05-09T09:42:07.928Z,38.42
2023-05-09T09:43:07.955Z,38.24
2023-05-09T09:44:08.360Z,38.10
2023-05-09T09:45:08.124Z,37.54
2023-05-09T09:46:08.051Z,37.52
2023-05-09T09:47:08.094Z,37.55
2023-05-09T09:48:08.137Z,37.59
2023-05-09T09:49:08.063Z,37.69
2023-05-09T09:50:08.165Z,37.63
2023-05-09T09:51:08.071Z,37.63
2023-05-09T09:52:08.842Z,37.46
2023-05-09T09:53:08.183Z,37.20
2023-05-09T09:54:08.216Z,37.26
2023-05-09T09:55:08.178Z,37.12
2023-05-09T09:56:08.203Z,36.98
2023-05-09T09:57:08.199Z,37.05
2023-05-09T09:58:08.236Z,37.08
2023-05-09T09:59:08.298Z,37.09
2023-05-09T10:00:08.291Z,37.30
2023-05-09T10:01:08.554Z,37.61
2023-05-09T10:02:08.625Z,37.68
2023-05-09T10:03:08.387Z,37.46
2023-05-09T10:04:08.516Z,37.49
2023-05-09T10:05:08.362Z,37.46
2023-05-09T10:06:08.472Z,37.40
2023-05-09T10:07:08.476Z,37.32
2023-05-09T10:08:08.434Z,37.38
2023-05-09T10:09:08.433Z,37.36
2023-05-09T10:10:08.486Z,37.47
2023-05-09T10:11:08.573Z,37.16
2023-05-09T10:12:08.714Z,37.14
2023-05-09T10:13:08.507Z,37.01
2023-05-09T10:14:10.440Z,36.97
2023-05-09T10:15:08.585Z,36.90
2023-05-09T10:16:08.669Z,36.98
2023-05-09T10:17:08.651Z,37.06
2023-05-09T10:18:08.781Z,37.10
2023-05-09T10:19:09.412Z,37.05
2023-05-09T10:20:08.586Z,37.10
2023-05-09T10:21:08.564Z,37.03
2023-05-09T10:22:08.714Z,37.03
2023-05-09T10:23:08.588Z,37.06
2023-05-09T10:24:08.594Z,37.19
2023-05-09T10:25:08.641Z,37.63
2023-05-09T10:26:08.608Z,37.57
2023-05-09T10:27:08.605Z,38.30
2023-05-09T10:28:08.635Z,38.95
2023-05-09T10:29:08.686Z,39.32
2023-05-09T10:30:08.660Z,39.07
2023-05-09T10:31:08.953Z,38.93
2023-05-09T10:32:08.787Z,38.97
2023-05-09T10:33:08.789Z,38.77
2023-05-09T10:34:08.678Z,38.70
2023-05-09T10:35:08.679Z,39.00
2023-05-09T10:36:08.683Z,38.78
2023-05-09T10:37:08.748Z,38.73
2023-05-09T10:38:08.750Z,38.64
2023-05-09T10:39:08.685Z,38.59
2023-05-09T10:40:08.655Z,38.36
2023-05-09T10:41:08.647Z,38.25
2023-05-09T10:42:08.785Z,38.30
2023-05-09T10:43:08.664Z,38.24
2023-05-09T10:44:08.697Z,38.31
2023-05-09T10:45:08.689Z,38.26
2023-05-09T10:46:08.785Z,38.25
2023-05-09T10:47:08.797Z,38.17
2023-05-09T10:48:09.063Z,38.10
2023-05-09T10:49:08.872Z,38.05
2023-05-09T10:50:08.845Z,38.13
2023-05-09T10:51:08.824Z,38.15
2023-05-09T10:52:08.856Z,38.06
2023-05-09T10:53:08.957Z,37.88
2023-05-09T10:54:08.951Z,37.81
2023-05-09T10:55:08.924Z,37.74
2023-05-09T10:56:08.931Z,37.73
2023-05-09T10:57:08.919Z,37.75
2023-05-09T10:58:08.934Z,37.64
2023-05-09T10:59:08.958Z,37.57
2023-05-09T11:00:09.094Z,37.59
2023-05-09T11:01:09.024Z,37.53
2023-05-09T11:02:09.024Z,37.51
2023-05-09T11:03:09.083Z,37.43
2023-05-09T11:04:09.070Z,37.43
2023-05-09T11:05:09.108Z,37.26
2023-05-09T11:06:09.124Z,37.19
2023-05-09T11:07:09.158Z,37.12
2023-05-09T11:08:09.159Z,37.03
2023-05-09T11:09:09.214Z,36.91
2023-05-09T11:10:09.207Z,36.87
2023-05-09T11:11:09.191Z,36.79
2023-05-09T11:12:09.235Z,36.83
2023-05-09T11:13:09.236Z,36.73
2023-05-09T11:14:09.236Z,36.75
2023-05-09T11:15:09.246Z,36.74
2023-05-09T11:16:09.286Z,36.76
2023-05-09T11:17:09.263Z,36.80
2023-05-09T11:18:09.320Z,36.82
2023-05-09T11:19:09.215Z,37.42
2023-05-09T11:20:09.360Z,38.45
2023-05-09T11:21:09.412Z,38.86
2023-05-09T11:22:09.327Z,38.91
2023-05-09T11:23:09.396Z,38.47
2023-05-09T11:24:09.442Z,38.07
2023-05-09T11:25:09.582Z,37.52
2023-05-09T11:26:09.632Z,37.19
2023-05-09T11:27:09.544Z,36.61
2023-05-09T11:28:09.582Z,35.93
2023-05-09T11:29:09.571Z,35.78
2023-05-09T11:30:09.645Z,35.49
2023-05-09T11:31:09.669Z,34.96
2023-05-09T11:32:09.676Z,34.63
2023-05-09T11:33:09.686Z,34.53
2023-05-09T11:34:09.666Z,34.40
2023-05-09T11:35:09.741Z,34.36
2023-05-09T11:36:09.700Z,34.22
2023-05-09T11:37:09.745Z,34.18
2023-05-09T11:38:09.777Z,34.32
2023-05-09T11:39:09.771Z,34.31
2023-05-09T11:40:09.792Z,34.32
2023-05-09T11:41:09.794Z,34.37
2023-05-09T11:42:09.906Z,34.49
2023-05-09T11:43:09.822Z,34.64
2023-05-09T11:44:09.809Z,34.81
2023-05-09T11:45:09.832Z,34.87
2023-05-09T11:46:09.953Z,35.00
2023-05-09T11:47:09.837Z,34.99
2023-05-09T11:48:10.077Z,35.03
2023-05-09T11:49:12.020Z,35.07
2023-05-09T11:50:09.961Z,35.15
2023-05-09T11:51:09.927Z,35.22
2023-05-09T11:52:09.937Z,35.24
2023-05-09T11:53:09.927Z,35.33
2023-05-09T11:54:09.926Z,35.26
2023-05-09T11:55:12.226Z,35.30
2023-05-09T11:56:09.922Z,35.45
2023-05-09T11:57:09.916Z,35.43
2023-05-09T11:58:09.991Z,35.33
2023-05-09T11:59:09.993Z,35.08
2023-05-09T12:00:09.884Z,34.94
2023-05-09T12:01:11.768Z,34.60
2023-05-09T12:02:09.942Z,34.53
2023-05-09T12:03:09.963Z,34.16
2023-05-09T12:04:09.953Z,34.04
2023-05-09T12:05:09.900Z,33.32
2023-05-09T12:06:09.888Z,33.17
2023-05-09T12:07:09.845Z,32.66
2023-05-09T12:08:09.954Z,32.72
2023-05-09T12:09:09.832Z,32.21
2023-05-09T12:10:09.856Z,32.11
2023-05-09T12:11:10.377Z,32.36
2023-05-09T12:12:09.799Z,32.26
2023-05-09T12:13:09.862Z,32.11
2023-05-09T12:14:09.883Z,32.05
2023-05-09T12:15:09.904Z,32.04
2023-05-09T12:16:09.820Z,31.94
2023-05-09T12:17:09.792Z,31.84
2023-05-09T12:18:09.810Z,32.32
2023-05-09T12:19:09.848Z,32.57
2023-05-09T12:20:09.885Z,32.02
2023-05-09T12:21:09.767Z,31.89
2023-05-09T12:22:09.939Z,31.40
2023-05-09T12:23:09.840Z,31.39
2023-05-09T12:24:09.903Z,31.35
2023-05-09T12:25:09.990Z,31.11
2023-05-09T12:26:10.019Z,30.92
2023-05-09T12:27:10.079Z,31.06
2023-05-09T12:28:10.146Z,31.02
2023-05-09T12:29:10.213Z,30.96
2023-05-09T12:30:10.382Z,31.08
2023-05-09T12:31:10.365Z,30.96
2023-05-09T12:32:10.890Z,30.89
2023-05-09T12:33:10.394Z,30.96
2023-05-09T12:34:10.504Z,30.80
2023-05-09T12:35:10.761Z,30.74
2023-05-09T12:36:10.572Z,30.87
2023-05-09T12:37:10.515Z,30.78
2023-05-09T12:38:11.424Z,30.62
2023-05-09T12:39:10.611Z,30.70
2023-05-09T12:40:10.626Z,30.80
2023-05-09T12:41:18.632Z,30.78
2023-05-09T12:42:11.632Z,30.70
2023-05-09T12:43:10.625Z,30.67
2023-05-09T12:44:10.630Z,30.44
2023-05-09T12:45:11.011Z,30.33
2023-05-09T12:46:10.660Z,30.46
2023-05-09T12:47:10.762Z,30.30
2023-05-09T12:48:10.692Z,30.35
2023-05-09T12:49:10.597Z,30.13
2023-05-09T12:50:13.602Z,30.25
2023-05-09T12:51:10.673Z,30.20
2023-05-09T12:52:10.649Z,30.26
2023-05-09T12:53:10.564Z,30.23
2023-05-09T12:54:10.534Z,30.38